This is the latest recevied weather packets stored in our database for station/object AK6MW. If no packets are shown the sender has not sent any weather packets the latest 10 day(s).
| Time | Temp. | Humidity | Pressure | Rain* | Wind** | Luminosity | Snow |
|---|---|---|---|---|---|---|---|
| 1777385924 | 0° C | 99% | 1018.9 hPa | - | - | - | - |
| 1777382924 | -1.67° C | 99% | 1018.6 hPa | - | - | - | - |
| 1777382324 | -1.67° C | 99% | 1018.4 hPa | - | - | - | - |
| 1777375723 | -1.11° C | 99% | 1018 hPa | - | - | - | - |
| 1777373946 | -0.56° C | 99% | 1017.8 hPa | - | - | - | - |
| 1777369723 | 0° C | 99% | 1018.2 hPa | - | - | - | - |
| 1777368522 | 0.56° C | 99% | 1018.2 hPa | - | - | - | - |
| 1777365544 | 1.67° C | 99% | 1018.6 hPa | - | - | - | - |
| 1777361323 | 1.67° C | 99% | 1018.5 hPa | - | - | - | - |
| 1777360144 | 2.22° C | 99% | 1018.4 hPa | - | - | - | - |
| 1777355323 | 3.33° C | 99% | 1018.3 hPa | - | - | - | - |
| 1777346922 | 5.56° C | 90% | 1017.3 hPa | - | - | - | - |
| 1777344523 | 6.67° C | 83% | 1016.6 hPa | - | - | - | - |
| 1777341522 | 7.78° C | 77% | 1016.3 hPa | - | - | - | - |
| 1777340923 | 7.78° C | 74% | 1016 hPa | - | - | - | - |
| 1777340326 | 8.33° C | 75% | 1016.3 hPa | - | - | - | - |
| 1777339721 | 8.33° C | 75% | 1016.5 hPa | - | - | - | - |
| 1777337944 | 8.89° C | 70% | 1016.4 hPa | - | - | - | - |
| 1777331923 | 9.44° C | 80% | 1016 hPa | - | - | - | - |
| 1777324121 | 6.67° C | 88% | 1016.5 hPa | - | - | - | - |
| 1777322922 | 6.67° C | 91% | 1016.7 hPa | - | - | - | - |
| 1777316322 | 4.44° C | 99% | 1016.4 hPa | - | - | - | - |
| 1777308563 | 3.89° C | 99% | 1015.7 hPa | - | - | - | - |
| 1777299522 | 2.78° C | 99% | 1015 hPa | - | - | - | - |
| 1777294724 | 3.33° C | 99% | 1014.1 hPa | - | - | - | - |
* Rain since midnight (hover to see other rain measurements)
** Current wind speed in m/s (hover to see current wind gust speed)